createdAt,value
2022-09-25T00:00:06.633Z,93.26
2022-09-25T00:02:00.010Z,93.26
2022-09-25T00:02:59.934Z,93.12
2022-09-25T00:05:04.028Z,93.26
2022-09-25T00:06:04.018Z,93.21
2022-09-25T00:07:57.292Z,92.93
2022-09-25T00:08:57.279Z,93.12
2022-09-25T00:11:01.379Z,93.40
2022-09-25T00:12:01.399Z,93.79
2022-09-25T00:14:05.562Z,93.21
2022-09-25T00:15:05.521Z,93.12
2022-09-25T00:16:58.830Z,93.02
2022-09-25T00:17:58.780Z,93.21
2022-09-25T00:19:52.057Z,93.12
2022-09-25T00:20:52.053Z,93.21
2022-09-25T00:22:45.285Z,93.21
2022-09-25T00:23:45.362Z,93.02
2022-09-25T00:25:38.344Z,93.02
2022-09-25T00:26:38.378Z,93.02
2022-09-25T00:28:31.611Z,93.40
2022-09-25T00:29:31.642Z,93.40
2022-09-25T00:31:24.994Z,93.21
2022-09-25T00:32:24.899Z,93.31
2022-09-25T00:34:29.024Z,93.31
2022-09-25T00:35:29.015Z,93.40
2022-09-25T00:37:33.106Z,93.69
2022-09-25T00:38:33.139Z,93.21
2022-09-25T00:40:37.274Z,93.79
2022-09-25T00:41:37.259Z,93.60
2022-09-25T00:43:30.480Z,93.88
2022-09-25T00:44:30.509Z,93.88
2022-09-25T00:46:23.878Z,93.79
2022-09-25T00:47:23.855Z,93.60
2022-09-25T00:49:17.027Z,93.79
2022-09-25T00:50:17.050Z,93.79
2022-09-25T00:52:21.242Z,93.69
2022-09-25T00:53:21.152Z,93.60
2022-09-25T00:55:14.383Z,93.79
2022-09-25T00:56:14.411Z,93.60
2022-09-25T00:58:07.743Z,93.79
2022-09-25T00:59:07.769Z,94.07
2022-09-25T01:01:01.077Z,93.79
2022-09-25T01:02:01.076Z,93.79
2022-09-25T01:03:54.319Z,93.50
2022-09-25T01:04:54.217Z,93.98
2022-09-25T01:06:47.434Z,93.69
2022-09-25T01:07:47.457Z,93.79
2022-09-25T01:09:51.585Z,93.79
2022-09-25T01:10:51.577Z,93.79
2022-09-25T01:12:55.663Z,93.79
2022-09-25T01:13:55.698Z,93.69
2022-09-25T01:15:48.768Z,93.69
2022-09-25T01:16:48.831Z,93.79
2022-09-25T01:18:52.854Z,93.50
2022-09-25T01:19:53.201Z,93.50
2022-09-25T01:20:52.898Z,93.98
2022-09-25T01:21:52.945Z,93.79
2022-09-25T01:22:52.963Z,93.79
2022-09-25T01:23:52.994Z,93.79
2022-09-25T01:24:53.028Z,93.69
2022-09-25T01:25:53.064Z,93.60
2022-09-25T01:26:53.099Z,93.98
2022-09-25T01:27:53.127Z,94.07
2022-09-25T01:28:53.163Z,94.55
2022-09-25T01:29:53.197Z,94.65
2022-09-25T01:30:53.300Z,94.17
2022-09-25T01:31:53.261Z,94.26
2022-09-25T01:32:53.300Z,94.36
2022-09-25T01:33:53.328Z,93.98
2022-09-25T01:34:53.362Z,94.17
2022-09-25T01:35:53.395Z,93.88
2022-09-25T01:36:53.429Z,94.55
2022-09-25T01:37:53.463Z,94.46
2022-09-25T01:38:53.495Z,94.36
2022-09-25T01:39:53.528Z,94.74
2022-09-25T01:40:53.685Z,94.46
2022-09-25T01:41:53.596Z,94.26
2022-09-25T01:42:53.629Z,94.74
2022-09-25T01:43:53.651Z,94.74
2022-09-25T01:44:53.682Z,94.46
2022-09-25T01:45:53.795Z,94.65
2022-09-25T01:46:53.748Z,94.26
2022-09-25T01:47:53.784Z,94.55
2022-09-25T01:48:53.817Z,94.55
2022-09-25T01:49:53.850Z,94.93
2022-09-25T01:50:53.884Z,94.46
2022-09-25T01:51:55.876Z,94.36
2022-09-25T01:52:53.948Z,94.65
2022-09-25T01:53:53.984Z,94.55
2022-09-25T01:54:54.029Z,94.36
2022-09-25T01:55:54.050Z,94.55
2022-09-25T01:56:54.083Z,94.55
2022-09-25T01:57:54.121Z,94.65
2022-09-25T01:58:54.148Z,94.55
2022-09-25T01:59:54.186Z,94.26
2022-09-25T02:00:54.232Z,94.65
2022-09-25T02:01:54.379Z,94.36
2022-09-25T02:02:54.305Z,94.26
2022-09-25T02:03:54.315Z,94.26
2022-09-25T02:04:54.347Z,94.26
2022-09-25T02:05:54.382Z,94.36
2022-09-25T02:06:54.413Z,94.74
2022-09-25T02:07:54.449Z,94.74
2022-09-25T02:08:54.480Z,94.93
2022-09-25T02:09:54.515Z,94.55
2022-09-25T02:10:54.547Z,95.03
2022-09-25T02:11:54.582Z,94.26
2022-09-25T02:12:54.614Z,94.46
2022-09-25T02:13:54.652Z,94.55
2022-09-25T02:14:54.680Z,94.36
2022-09-25T02:15:54.716Z,94.17
2022-09-25T02:16:54.780Z,94.07
2022-09-25T02:17:54.782Z,94.26
2022-09-25T02:18:54.823Z,94.07
2022-09-25T02:19:54.848Z,93.50
2022-09-25T02:20:54.881Z,93.79
2022-09-25T02:21:54.916Z,93.69
2022-09-25T02:22:54.947Z,93.60
2022-09-25T02:23:55.066Z,93.79
2022-09-25T02:24:58.685Z,93.60
2022-09-25T02:25:55.047Z,94.17
2022-09-25T02:26:55.079Z,93.12
2022-09-25T02:27:55.115Z,93.21
2022-09-25T02:28:55.155Z,93.12
2022-09-25T02:29:55.181Z,92.54
2022-09-25T02:30:55.276Z,92.64
2022-09-25T02:31:55.246Z,92.93
2022-09-25T02:32:55.283Z,93.12
2022-09-25T02:33:55.313Z,92.93
2022-09-25T02:34:55.348Z,92.93
2022-09-25T02:35:55.382Z,92.83
2022-09-25T02:36:55.414Z,93.02
2022-09-25T02:37:55.449Z,93.40
2022-09-25T02:38:55.477Z,93.12
2022-09-25T02:39:55.513Z,93.12
2022-09-25T02:40:55.595Z,93.12
2022-09-25T02:41:55.579Z,93.21
2022-09-25T02:42:55.619Z,93.02
2022-09-25T02:43:55.647Z,93.12
2022-09-25T02:44:55.678Z,93.50
2022-09-25T02:45:55.764Z,93.98
2022-09-25T02:46:55.745Z,93.21
2022-09-25T02:47:55.778Z,93.12
2022-09-25T02:48:55.810Z,93.40
2022-09-25T02:49:55.847Z,93.21
2022-09-25T02:50:55.876Z,93.12
2022-09-25T02:51:55.915Z,93.02
2022-09-25T02:52:55.943Z,93.12
2022-09-25T02:53:55.979Z,92.93
2022-09-25T02:54:56.010Z,92.74
2022-09-25T02:55:56.047Z,92.93
2022-09-25T02:56:59.988Z,92.64
2022-09-25T02:57:56.113Z,92.54
2022-09-25T02:58:56.148Z,92.54
2022-09-25T02:59:56.177Z,92.83
2022-09-25T03:00:56.254Z,91.97
2022-09-25T03:01:56.281Z,91.88
2022-09-25T03:02:56.419Z,91.97
2022-09-25T03:03:56.315Z,92.16
2022-09-25T03:04:56.343Z,91.97
2022-09-25T03:05:56.380Z,91.88
2022-09-25T03:06:56.407Z,91.88
2022-09-25T03:07:56.443Z,92.07
2022-09-25T03:08:56.486Z,92.35
2022-09-25T03:09:56.511Z,92.07
2022-09-25T03:10:56.541Z,92.16
2022-09-25T03:11:56.578Z,91.68
2022-09-25T03:12:56.609Z,91.78
2022-09-25T03:13:56.642Z,91.88
2022-09-25T03:14:56.676Z,91.78
2022-09-25T03:15:56.710Z,92.16
2022-09-25T03:16:56.860Z,91.97
2022-09-25T03:17:56.777Z,92.07
2022-09-25T03:18:56.808Z,91.88
2022-09-25T03:19:56.841Z,91.78
2022-09-25T03:20:56.876Z,91.88
2022-09-25T03:21:56.908Z,91.78
2022-09-25T03:22:56.941Z,91.68
2022-09-25T03:23:56.981Z,91.11
2022-09-25T03:24:57.010Z,91.39
2022-09-25T03:25:57.050Z,91.02
2022-09-25T03:26:57.074Z,90.92
2022-09-25T03:27:57.202Z,91.68
2022-09-25T03:28:57.141Z,91.59
2022-09-25T03:29:57.176Z,90.82
2022-09-25T03:30:57.266Z,91.59
2022-09-25T03:31:57.239Z,91.02
2022-09-25T03:32:57.275Z,90.73
2022-09-25T03:33:57.313Z,90.68
2022-09-25T03:34:57.345Z,91.20
2022-09-25T03:35:57.373Z,90.73
2022-09-25T03:36:57.405Z,91.02
2022-09-25T03:37:57.442Z,91.11
2022-09-25T03:38:57.479Z,90.82
2022-09-25T03:39:57.506Z,90.73
2022-09-25T03:40:57.615Z,90.92
2022-09-25T03:41:57.572Z,90.92
2022-09-25T03:42:57.608Z,90.82
2022-09-25T03:43:57.729Z,90.82
2022-09-25T03:44:57.671Z,91.30
2022-09-25T03:45:57.750Z,91.39
2022-09-25T03:46:57.740Z,91.39
2022-09-25T03:47:57.772Z,91.30
2022-09-25T03:48:57.805Z,91.20
2022-09-25T03:49:57.837Z,91.30
2022-09-25T03:50:57.870Z,91.11
2022-09-25T03:51:57.904Z,91.11
2022-09-25T03:52:57.938Z,91.06
2022-09-25T03:53:57.971Z,91.02
2022-09-25T03:54:58.003Z,91.02
2022-09-25T03:55:58.035Z,91.25
2022-09-25T03:56:58.070Z,91.30
2022-09-25T03:57:58.105Z,91.39
2022-09-25T03:58:58.137Z,91.25
2022-09-25T03:59:58.171Z,91.20
2022-09-25T04:00:58.229Z,91.35
2022-09-25T04:01:58.250Z,91.11
2022-09-25T04:02:58.318Z,91.35
2022-09-25T04:03:58.300Z,91.39
2022-09-25T04:04:58.400Z,91.39
2022-09-25T04:05:58.367Z,91.35
2022-09-25T04:06:58.401Z,91.20
2022-09-25T04:07:58.436Z,91.78
2022-09-25T04:08:58.469Z,91.59
2022-09-25T04:09:58.538Z,91.35
2022-09-25T04:10:58.537Z,91.20
2022-09-25T04:11:58.567Z,91.25
2022-09-25T04:12:58.603Z,91.35
2022-09-25T04:13:58.637Z,91.54
2022-09-25T04:14:58.667Z,91.35
2022-09-25T04:15:58.786Z,91.54
2022-09-25T04:16:58.732Z,91.83
2022-09-25T04:18:02.408Z,91.45
2022-09-25T04:18:58.807Z,91.45
2022-09-25T04:19:58.831Z,91.64
2022-09-25T04:20:58.865Z,91.83
2022-09-25T04:21:58.905Z,91.25
2022-09-25T04:22:58.931Z,91.45
2022-09-25T04:23:58.964Z,91.78
2022-09-25T04:24:58.997Z,91.64
2022-09-25T04:25:59.034Z,91.25
2022-09-25T04:26:59.076Z,91.35
2022-09-25T04:27:59.096Z,91.64
2022-09-25T04:28:59.133Z,91.88
2022-09-25T04:29:59.163Z,91.74
2022-09-25T04:30:59.331Z,91.64
2022-09-25T04:31:59.344Z,91.45
2022-09-25T04:32:59.265Z,91.74
2022-09-25T04:33:59.301Z,91.45
2022-09-25T04:34:59.330Z,91.45
2022-09-25T04:35:59.362Z,91.93
2022-09-25T04:36:59.399Z,91.64
2022-09-25T04:37:59.430Z,91.64
2022-09-25T04:38:59.461Z,91.93
2022-09-25T04:39:59.494Z,91.93
2022-09-25T04:40:59.530Z,90.78
2022-09-25T04:41:59.562Z,90.97
2022-09-25T04:42:59.594Z,90.78
2022-09-25T04:43:59.630Z,90.88
2022-09-25T04:44:59.662Z,90.78
2022-09-25T04:45:59.726Z,90.97
2022-09-25T04:46:59.727Z,90.78
2022-09-25T04:47:59.847Z,90.59
2022-09-25T04:48:59.810Z,91.45
2022-09-25T04:49:59.826Z,90.78
2022-09-25T04:50:59.860Z,91.25
2022-09-25T04:51:59.892Z,91.25
2022-09-25T04:52:59.929Z,90.97
2022-09-25T04:53:59.958Z,91.25
2022-09-25T04:54:59.993Z,90.97
2022-09-25T04:56:00.049Z,91.45
2022-09-25T04:57:00.059Z,91.35
2022-09-25T04:58:00.112Z,91.16
2022-09-25T04:59:00.124Z,91.25
2022-09-25T05:00:00.171Z,91.45
2022-09-25T05:01:00.297Z,91.16
2022-09-25T05:02:00.363Z,91.06
2022-09-25T05:03:00.410Z,90.97
2022-09-25T05:04:03.788Z,91.25
2022-09-25T05:05:00.329Z,90.78
2022-09-25T05:06:00.356Z,90.88
2022-09-25T05:07:00.391Z,90.78
2022-09-25T05:08:00.423Z,90.88
2022-09-25T05:09:00.456Z,90.88
2022-09-25T05:10:00.489Z,90.97
2022-09-25T05:11:00.525Z,91.06
2022-09-25T05:12:00.558Z,90.97
2022-09-25T05:13:00.609Z,90.59
2022-09-25T05:14:00.620Z,90.68
2022-09-25T05:15:00.654Z,90.49
2022-09-25T05:16:00.733Z,90.78
2022-09-25T05:17:00.722Z,90.20
2022-09-25T05:18:00.752Z,90.30
2022-09-25T05:19:00.787Z,90.49
2022-09-25T05:20:00.820Z,90.68
2022-09-25T05:21:00.855Z,91.35
2022-09-25T05:22:00.886Z,90.49
2022-09-25T05:23:00.920Z,90.68
2022-09-25T05:24:00.961Z,90.59
2022-09-25T05:25:00.987Z,90.78
2022-09-25T05:26:01.019Z,90.68
2022-09-25T05:27:01.053Z,91.16
2022-09-25T05:28:01.091Z,90.78
2022-09-25T05:29:01.120Z,90.88
2022-09-25T05:30:01.151Z,91.16
2022-09-25T05:31:01.234Z,90.78
2022-09-25T05:32:01.220Z,90.88
2022-09-25T05:33:01.251Z,90.97
2022-09-25T05:34:01.285Z,91.35
2022-09-25T05:35:01.317Z,91.06
2022-09-25T05:36:01.353Z,91.06
2022-09-25T05:37:01.457Z,90.97
2022-09-25T05:38:01.418Z,90.78
2022-09-25T05:39:01.448Z,90.68
2022-09-25T05:40:01.483Z,89.92
2022-09-25T05:41:01.526Z,89.53
2022-09-25T05:42:01.555Z,89.44
2022-09-25T05:43:08.799Z,89.73
2022-09-25T05:44:54.775Z,90.20
2022-09-25T05:45:54.803Z,90.49
2022-09-25T05:47:47.776Z,90.68
2022-09-25T05:48:47.809Z,90.30
2022-09-25T05:50:41.045Z,90.59
2022-09-25T05:51:41.046Z,91.16
2022-09-25T05:53:34.230Z,91.06
2022-09-25T05:54:34.248Z,91.06
2022-09-25T05:56:27.287Z,90.97
2022-09-25T05:57:27.272Z,91.06
2022-09-25T05:59:20.431Z,91.16
2022-09-25T06:00:20.464Z,91.45
2022-09-25T06:02:24.540Z,91.16
2022-09-25T06:03:24.661Z,91.25
2022-09-25T06:05:28.781Z,91.16
2022-09-25T06:06:28.813Z,91.25
2022-09-25T06:08:22.004Z,90.88
2022-09-25T06:09:21.992Z,91.25
2022-09-25T06:11:15.165Z,91.35
2022-09-25T06:12:15.195Z,91.25
2022-09-25T06:14:19.289Z,91.06
2022-09-25T06:15:19.289Z,91.59
2022-09-25T06:17:23.383Z,91.39
2022-09-25T06:18:23.410Z,91.02
2022-09-25T06:20:16.642Z,89.77
2022-09-25T06:21:16.449Z,89.87
2022-09-25T06:23:09.692Z,88.81
2022-09-25T06:24:09.734Z,88.53
2022-09-25T06:26:02.664Z,88.24
2022-09-25T06:27:02.688Z,88.24
2022-09-25T06:28:58.641Z,88.34
2022-09-25T06:29:55.803Z,88.53
2022-09-25T06:31:49.016Z,87.86
2022-09-25T06:32:49.012Z,87.86
2022-09-25T06:34:53.088Z,87.76
2022-09-25T06:35:53.117Z,87.86
2022-09-25T06:37:57.236Z,85.47
2022-09-25T06:38:57.233Z,86.04
2022-09-25T06:40:50.500Z,85.18
2022-09-25T06:41:50.425Z,85.18
2022-09-25T06:43:54.524Z,85.85
2022-09-25T06:44:54.536Z,86.04
2022-09-25T06:46:58.612Z,85.18
2022-09-25T06:47:58.641Z,85.85
2022-09-25T06:50:02.705Z,85.66
2022-09-25T06:51:02.735Z,85.57
2022-09-25T06:53:06.873Z,85.28
2022-09-25T06:54:06.905Z,84.99
2022-09-25T06:55:59.979Z,84.52
2022-09-25T06:56:59.901Z,84.13
2022-09-25T06:59:03.997Z,84.70
2022-09-25T07:00:04.001Z,84.89
2022-09-25T07:01:57.355Z,85.09
2022-09-25T07:02:57.249Z,85.47
2022-09-25T07:05:01.282Z,85.66
2022-09-25T07:06:01.312Z,85.85
2022-09-25T07:07:54.492Z,86.23
2022-09-25T07:08:54.517Z,85.47
2022-09-25T07:10:47.717Z,85.85
2022-09-25T07:11:47.718Z,85.28
2022-09-25T07:13:40.891Z,85.18
2022-09-25T07:14:40.916Z,85.47
2022-09-25T07:15:41.007Z,85.47
2022-09-25T07:16:40.980Z,85.22
2022-09-25T07:17:41.015Z,84.70
2022-09-25T07:18:41.047Z,84.89
2022-09-25T07:19:41.081Z,85.09
2022-09-25T07:20:41.114Z,84.80
2022-09-25T07:21:41.145Z,84.80
2022-09-25T07:22:41.194Z,85.13
2022-09-25T07:23:41.213Z,85.13
2022-09-25T07:24:41.256Z,84.94
2022-09-25T07:25:41.281Z,85.03
2022-09-25T07:26:43.321Z,84.94
2022-09-25T07:27:41.350Z,85.03
2022-09-25T07:28:41.382Z,84.94
2022-09-25T07:29:41.418Z,84.94
2022-09-25T07:30:41.516Z,85.13
2022-09-25T07:31:41.505Z,84.36
2022-09-25T07:32:41.515Z,84.94
2022-09-25T07:33:41.549Z,84.94
2022-09-25T07:34:41.582Z,84.94
2022-09-25T07:35:41.615Z,84.75
2022-09-25T07:36:41.656Z,84.84
2022-09-25T07:37:41.683Z,84.84
2022-09-25T07:38:41.719Z,84.75
2022-09-25T07:39:41.757Z,84.22
2022-09-25T07:40:41.839Z,84.22
2022-09-25T07:41:41.818Z,84.02
2022-09-25T07:42:41.860Z,83.73
2022-09-25T07:43:41.993Z,83.64
2022-09-25T07:44:46.058Z,83.36
2022-09-25T07:45:41.955Z,83.26
2022-09-25T07:46:42.016Z,83.64
2022-09-25T07:47:42.020Z,83.26
2022-09-25T07:48:42.055Z,83.54
2022-09-25T07:49:42.373Z,83.26
2022-09-25T07:50:42.177Z,82.87
2022-09-25T07:51:42.172Z,82.59
2022-09-25T07:52:42.224Z,82.11
2022-09-25T07:53:42.232Z,82.30
2022-09-25T07:54:42.256Z,81.82
2022-09-25T07:55:42.306Z,81.73
2022-09-25T07:56:42.382Z,81.82
2022-09-25T07:57:42.359Z,82.20
2022-09-25T07:58:42.393Z,82.78
2022-09-25T07:59:42.431Z,82.59
2022-09-25T08:00:42.465Z,82.59
2022-09-25T08:01:44.826Z,82.06
2022-09-25T08:02:42.564Z,82.20
2022-09-25T08:03:42.565Z,82.11
2022-09-25T08:04:42.596Z,81.96
2022-09-25T08:05:42.635Z,82.43
2022-09-25T08:06:42.666Z,82.63
2022-09-25T08:07:42.700Z,82.63
2022-09-25T08:08:42.748Z,81.77
2022-09-25T08:09:42.765Z,82.34
2022-09-25T08:10:42.802Z,81.86
2022-09-25T08:11:42.838Z,82.24
2022-09-25T08:12:42.871Z,82.15
2022-09-25T08:13:42.903Z,82.06
2022-09-25T08:14:42.942Z,82.06
2022-09-25T08:15:43.050Z,82.15
2022-09-25T08:16:43.014Z,81.77
2022-09-25T08:17:43.042Z,82.15
2022-09-25T08:18:43.076Z,82.15
2022-09-25T08:19:43.111Z,81.62
2022-09-25T08:20:43.143Z,81.23
2022-09-25T08:21:43.177Z,81.33
2022-09-25T08:22:43.215Z,81.04
2022-09-25T08:23:47.628Z,80.85
2022-09-25T08:24:43.285Z,80.94
2022-09-25T08:25:43.315Z,80.94
2022-09-25T08:26:43.352Z,80.66
2022-09-25T08:27:43.417Z,80.27
2022-09-25T08:28:43.417Z,80.37
2022-09-25T08:29:43.451Z,80.18
2022-09-25T08:30:43.609Z,80.47
2022-09-25T08:31:43.533Z,79.80
2022-09-25T08:32:43.557Z,79.70
2022-09-25T08:33:43.589Z,79.70
2022-09-25T08:34:43.918Z,79.55
2022-09-25T08:35:43.658Z,78.49
2022-09-25T08:36:43.764Z,78.88
2022-09-25T08:37:43.731Z,77.34
2022-09-25T08:38:43.763Z,77.34
2022-09-25T08:39:43.796Z,77.34
2022-09-25T08:40:46.541Z,76.86
2022-09-25T08:41:43.879Z,77.34
2022-09-25T08:42:43.901Z,77.15
2022-09-25T08:43:43.946Z,77.15
2022-09-25T08:45:02.479Z,77.25
2022-09-25T08:45:44.006Z,77.29
2022-09-25T08:46:44.127Z,76.81
2022-09-25T08:47:44.160Z,76.71
2022-09-25T08:48:44.136Z,76.62
2022-09-25T08:49:44.217Z,76.81
2022-09-25T08:50:44.182Z,77.00
2022-09-25T08:51:44.232Z,77.09
2022-09-25T08:52:44.249Z,77.09
2022-09-25T08:53:44.282Z,77.00
2022-09-25T08:54:45.811Z,77.29
2022-09-25T08:55:44.351Z,76.90
2022-09-25T08:56:44.391Z,76.52
2022-09-25T08:57:44.422Z,76.56
2022-09-25T08:58:44.457Z,76.46
2022-09-25T08:59:44.491Z,77.13
2022-09-25T09:00:44.527Z,77.23
2022-09-25T09:01:44.636Z,77.42
2022-09-25T09:02:44.647Z,75.45
2022-09-25T09:03:44.656Z,73.72
2022-09-25T09:04:44.666Z,73.72
2022-09-25T09:05:49.456Z,74.19
2022-09-25T09:06:49.658Z,73.91
2022-09-25T09:07:44.774Z,73.91
2022-09-25T09:08:44.806Z,73.08
2022-09-25T09:09:44.842Z,72.79
2022-09-25T09:10:44.877Z,72.69
2022-09-25T09:11:44.914Z,71.45
2022-09-25T09:12:44.948Z,71.83
2022-09-25T09:13:44.981Z,71.00
2022-09-25T09:14:45.028Z,71.39
2022-09-25T09:15:45.124Z,70.81
2022-09-25T09:16:45.090Z,70.62
2022-09-25T09:17:45.123Z,70.33
2022-09-25T09:18:45.170Z,70.14
2022-09-25T09:19:45.219Z,68.79
2022-09-25T09:20:45.231Z,69.27
2022-09-25T09:21:45.266Z,69.66
2022-09-25T09:22:45.321Z,69.08
2022-09-25T09:23:45.336Z,69.08
2022-09-25T09:24:45.372Z,68.31
2022-09-25T09:25:45.411Z,69.18
2022-09-25T09:26:45.445Z,68.54
2022-09-25T09:27:45.479Z,67.86
2022-09-25T09:28:45.531Z,67.71
2022-09-25T09:29:45.578Z,67.51
2022-09-25T09:30:45.655Z,67.71
2022-09-25T09:31:45.626Z,67.13
2022-09-25T09:32:45.656Z,66.39
2022-09-25T09:33:45.694Z,65.91
2022-09-25T09:35:07.878Z,64.66
2022-09-25T09:35:45.770Z,64.66
2022-09-25T09:36:45.803Z,64.50
2022-09-25T09:37:45.851Z,64.12
2022-09-25T09:38:45.874Z,64.02
2022-09-25T09:39:45.910Z,64.05
2022-09-25T09:40:45.965Z,64.73
2022-09-25T09:41:45.981Z,64.43
2022-09-25T09:42:46.018Z,63.60
2022-09-25T09:43:46.054Z,61.48
2022-09-25T09:44:46.113Z,61.32
2022-09-25T09:45:46.129Z,60.93
2022-09-25T09:46:46.163Z,61.32
2022-09-25T09:47:46.200Z,60.93
2022-09-25T09:48:46.235Z,59.78
2022-09-25T09:49:46.272Z,59.71
2022-09-25T09:50:52.114Z,60.00
2022-09-25T09:51:46.430Z,59.90
2022-09-25T09:52:46.388Z,58.68
2022-09-25T09:53:46.421Z,58.19
2022-09-25T09:54:46.460Z,58.19
2022-09-25T09:55:46.495Z,59.06
2022-09-25T09:56:46.531Z,59.16
2022-09-25T09:57:46.567Z,58.58
2022-09-25T09:58:46.603Z,58.51
2022-09-25T09:59:46.641Z,56.74
2022-09-25T10:00:46.677Z,56.29
2022-09-25T10:01:46.927Z,55.40
2022-09-25T10:02:46.857Z,55.27
2022-09-25T10:03:46.792Z,57.20
2022-09-25T10:04:46.826Z,59.42
2022-09-25T10:05:46.867Z,58.17
2022-09-25T10:06:46.904Z,58.45
2022-09-25T10:07:47.024Z,56.91
2022-09-25T10:08:46.977Z,56.43
2022-09-25T10:09:47.013Z,56.81
2022-09-25T10:10:47.052Z,58.19
2022-09-25T10:11:47.090Z,58.29
2022-09-25T10:12:47.123Z,57.52
2022-09-25T10:13:47.165Z,57.62
2022-09-25T10:14:47.202Z,56.94
2022-09-25T10:15:47.331Z,57.62
2022-09-25T10:16:47.277Z,57.04
2022-09-25T10:17:47.317Z,57.52
2022-09-25T10:18:47.349Z,57.42
2022-09-25T10:19:47.390Z,57.42
2022-09-25T10:20:47.424Z,57.62
2022-09-25T10:21:47.464Z,57.54
2022-09-25T10:22:47.500Z,58.32
2022-09-25T10:23:47.566Z,56.87
2022-09-25T10:24:47.576Z,57.26
2022-09-25T10:25:50.307Z,57.06
2022-09-25T10:26:47.651Z,57.84
2022-09-25T10:27:47.689Z,57.54
2022-09-25T10:28:47.728Z,56.84
2022-09-25T10:29:47.766Z,56.68
2022-09-25T10:30:47.837Z,56.58
2022-09-25T10:31:47.841Z,56.39
2022-09-25T10:32:47.875Z,57.06
2022-09-25T10:33:47.929Z,56.10
2022-09-25T10:34:47.964Z,57.54
2022-09-25T10:35:47.991Z,57.64
2022-09-25T10:36:48.027Z,58.32
2022-09-25T10:37:48.065Z,55.01
2022-09-25T10:38:48.106Z,55.59
2022-09-25T10:39:48.364Z,55.59
2022-09-25T10:40:48.205Z,55.98
2022-09-25T10:41:48.219Z,56.94
2022-09-25T10:42:48.252Z,56.84
2022-09-25T10:43:48.293Z,57.42
2022-09-25T10:44:48.331Z,57.62
2022-09-25T10:45:48.436Z,56.94
2022-09-25T10:46:48.430Z,57.04
2022-09-25T10:47:48.445Z,56.07
2022-09-25T10:48:48.492Z,56.36
2022-09-25T10:49:48.519Z,56.68
2022-09-25T10:50:48.557Z,55.33
2022-09-25T10:51:48.673Z,56.84
2022-09-25T10:52:48.636Z,56.84
2022-09-25T10:53:48.672Z,55.62
2022-09-25T10:54:48.710Z,56.96
2022-09-25T10:55:48.752Z,58.03
2022-09-25T10:56:48.786Z,58.25
2022-09-25T10:57:48.825Z,57.41
2022-09-25T10:58:48.866Z,57.70
2022-09-25T10:59:48.901Z,57.03
2022-09-25T11:00:48.938Z,56.54
2022-09-25T11:01:49.050Z,55.99
2022-09-25T11:02:49.065Z,56.28
2022-09-25T11:03:49.053Z,55.41
2022-09-25T11:04:49.090Z,55.41
2022-09-25T11:05:49.131Z,55.11
2022-09-25T11:06:49.171Z,55.21
2022-09-25T11:07:49.206Z,54.53
2022-09-25T11:08:49.243Z,54.25
2022-09-25T11:09:49.283Z,55.89
2022-09-25T11:10:49.326Z,55.21
2022-09-25T11:11:49.368Z,54.63
2022-09-25T11:12:49.397Z,55.11
2022-09-25T11:13:49.435Z,55.79
2022-09-25T11:14:49.487Z,54.35
2022-09-25T11:15:49.514Z,54.35
2022-09-25T11:16:49.611Z,55.38
2022-09-25T11:17:49.590Z,55.21
2022-09-25T11:18:49.627Z,53.83
2022-09-25T11:19:49.673Z,55.19
2022-09-25T11:20:49.706Z,55.09
2022-09-25T11:21:49.748Z,55.47
2022-09-25T11:22:49.782Z,56.05
2022-09-25T11:23:49.822Z,56.63
2022-09-25T11:24:49.863Z,57.51
2022-09-25T11:25:49.899Z,58.45
2022-09-25T11:26:49.937Z,57.99
2022-09-25T11:27:49.980Z,58.37
2022-09-25T11:28:50.015Z,57.31
2022-09-25T11:29:50.058Z,57.60
2022-09-25T11:30:50.156Z,58.28
2022-09-25T11:31:50.137Z,57.70
2022-09-25T11:32:52.636Z,56.63
2022-09-25T11:33:50.209Z,56.83
2022-09-25T11:34:50.251Z,56.35
2022-09-25T11:35:50.286Z,57.12
2022-09-25T11:36:50.324Z,57.51
2022-09-25T11:37:50.365Z,57.41
2022-09-25T11:38:50.402Z,57.60
2022-09-25T11:39:50.442Z,56.63
2022-09-25T11:40:50.494Z,56.15
2022-09-25T11:41:50.518Z,56.15
2022-09-25T11:42:57.844Z,56.73
2022-09-25T11:44:43.737Z,55.51
2022-09-25T11:45:43.814Z,57.15
2022-09-25T11:47:47.846Z,55.70
2022-09-25T11:48:47.879Z,55.96
2022-09-25T11:50:41.047Z,55.89
2022-09-25T11:51:41.078Z,55.89
2022-09-25T11:53:34.278Z,55.96
2022-09-25T11:54:34.835Z,56.93
2022-09-25T11:56:38.383Z,58.37
2022-09-25T11:57:38.418Z,57.79
2022-09-25T11:59:31.678Z,58.37
2022-09-25T12:00:31.625Z,57.60
2022-09-25T12:02:24.868Z,56.35
2022-09-25T12:03:24.850Z,56.93
2022-09-25T12:05:28.915Z,57.82
2022-09-25T12:06:28.951Z,56.67
2022-09-25T12:08:33.046Z,55.05
2022-09-25T12:09:33.050Z,53.11
2022-09-25T12:11:37.139Z,52.53
2022-09-25T12:12:37.170Z,52.85
2022-09-25T12:14:30.377Z,52.82
2022-09-25T12:15:30.381Z,53.14
2022-09-25T12:17:34.472Z,53.43
2022-09-25T12:18:34.555Z,53.59
2022-09-25T12:20:27.690Z,51.98
2022-09-25T12:21:27.723Z,53.33
2022-09-25T12:23:20.933Z,53.14
2022-09-25T12:24:20.937Z,53.91
2022-09-25T12:26:13.947Z,52.44
2022-09-25T12:27:13.981Z,52.82
2022-09-25T12:29:07.169Z,53.89
2022-09-25T12:30:07.196Z,53.14
2022-09-25T12:32:00.378Z,52.66
2022-09-25T12:33:00.408Z,52.66
2022-09-25T12:34:53.638Z,53.23
2022-09-25T12:35:53.615Z,53.72
2022-09-25T12:37:46.793Z,51.13
2022-09-25T12:38:46.824Z,51.13
2022-09-25T12:40:50.956Z,52.58
2022-09-25T12:41:50.940Z,50.16
2022-09-25T12:43:44.179Z,50.55
2022-09-25T12:44:44.163Z,50.55
2022-09-25T12:46:37.391Z,51.42
2022-09-25T12:47:37.375Z,50.26
2022-09-25T12:49:30.582Z,49.77
2022-09-25T12:50:30.587Z,49.19
2022-09-25T12:52:23.765Z,48.03
2022-09-25T12:53:23.799Z,49.58
2022-09-25T12:55:27.898Z,48.03
2022-09-25T12:56:27.916Z,49.77
2022-09-25T12:58:32.050Z,50.74
2022-09-25T12:59:32.022Z,51.23
2022-09-25T13:01:25.362Z,47.45
2022-09-25T13:02:25.292Z,49.85
2022-09-25T13:04:18.412Z,52.08
2022-09-25T13:05:21.852Z,52.36
2022-09-25T13:07:11.634Z,51.08
2022-09-25T13:08:11.666Z,49.82
2022-09-25T13:10:04.672Z,50.40
2022-09-25T13:11:04.706Z,51.25
2022-09-25T13:13:19.918Z,52.70
2022-09-25T13:14:19.951Z,53.47
2022-09-25T13:16:12.998Z,53.57
2022-09-25T13:17:12.975Z,54.35
2022-09-25T13:19:06.037Z,53.47
2022-09-25T13:20:06.125Z,52.99
2022-09-25T13:22:10.190Z,54.41
2022-09-25T13:23:10.150Z,53.83
2022-09-25T13:25:03.328Z,53.86
2022-09-25T13:26:03.359Z,54.03
2022-09-25T13:28:07.471Z,53.93
2022-09-25T13:29:07.502Z,54.22
2022-09-25T13:31:04.313Z,52.00
2022-09-25T13:32:00.708Z,53.83
2022-09-25T13:33:53.914Z,53.45
2022-09-25T13:34:53.916Z,53.61
2022-09-25T13:36:58.087Z,55.07
2022-09-25T13:37:58.041Z,54.29
2022-09-25T13:40:02.117Z,54.29
2022-09-25T13:41:02.150Z,54.87
2022-09-25T13:42:55.329Z,54.17
2022-09-25T13:43:55.357Z,54.36
2022-09-25T13:45:48.443Z,54.53
2022-09-25T13:46:48.383Z,55.10
2022-09-25T13:48:41.561Z,57.04
2022-09-25T13:49:41.595Z,57.14
2022-09-25T13:51:34.772Z,56.56
2022-09-25T13:52:34.807Z,55.88
2022-09-25T13:54:27.984Z,55.88
2022-09-25T13:55:28.021Z,55.78
2022-09-25T13:57:21.194Z,56.24
2022-09-25T13:58:21.220Z,55.08
2022-09-25T14:00:25.301Z,56.72
2022-09-25T14:01:25.373Z,56.91
2022-09-25T14:03:29.413Z,57.39
2022-09-25T14:04:29.437Z,57.68
2022-09-25T14:06:22.445Z,57.49
2022-09-25T14:07:22.484Z,57.39
2022-09-25T14:09:15.658Z,57.29
2022-09-25T14:10:15.682Z,57.49
2022-09-25T14:12:09.000Z,57.59
2022-09-25T14:13:09.045Z,58.07
2022-09-25T14:15:13.140Z,58.36
2022-09-25T14:16:13.152Z,59.23
2022-09-25T14:18:06.319Z,58.75
2022-09-25T14:19:06.348Z,58.23
2022-09-25T14:20:59.533Z,58.62
2022-09-25T14:21:59.563Z,59.10
2022-09-25T14:24:03.653Z,59.48
2022-09-25T14:25:03.678Z,59.20
2022-09-25T14:26:56.866Z,59.20
2022-09-25T14:27:56.895Z,59.68
2022-09-25T14:29:50.075Z,59.68
2022-09-25T14:30:50.103Z,60.06
2022-09-25T14:32:55.174Z,59.20
2022-09-25T14:33:43.346Z,59.39
2022-09-25T14:35:36.360Z,59.20
2022-09-25T14:36:36.394Z,60.35
2022-09-25T14:38:29.601Z,59.65
2022-09-25T14:39:29.598Z,60.52
2022-09-25T14:41:33.725Z,60.13
2022-09-25T14:42:33.737Z,60.13
2022-09-25T14:44:37.837Z,60.80
2022-09-25T14:45:37.952Z,60.71
2022-09-25T14:47:31.040Z,61.35